Time;durP1;ratioP1;P1;durP2;ratioP2;P2;SDS_P1;SDS_P2;PMS_P1;PMS_P2;Temp;Humidity;BMP_temperature;BMP_pressure;BME280_temperature;BME280_humidity;BME280_pressure;Samples;Min_cycle;Max_cycle;Signal;HPM_P1;HPM_P2
2023/05/05 00:01:32;;;;;;;12.02;6.65;;;10.50;99.90;;;;;;5096000;28;20051;-86
2023/05/05 00:03:57;;;;;;;16.08;6.65;;;10.40;99.90;;;;;;5095785;28;20059;-86
2023/05/05 00:06:23;;;;;;;9.82;5.82;;;10.40;99.90;;;;;;5095989;28;20028;-86
2023/05/05 00:08:49;;;;;;;11.52;6.28;;;10.50;99.90;;;;;;5095807;28;20499;-86
2023/05/05 00:11:15;;;;;;;13.35;6.38;;;10.40;99.90;;;;;;5094681;28;20056;-86
2023/05/05 00:13:40;;;;;;;11.82;6.35;;;10.40;99.90;;;;;;5095586;28;20059;-86
2023/05/05 00:16:06;;;;;;;15.07;6.65;;;10.30;99.90;;;;;;5095477;28;20131;-86
2023/05/05 00:18:32;;;;;;;11.40;6.60;;;10.30;99.90;;;;;;5095540;28;20178;-85
2023/05/05 00:20:58;;;;;;;11.02;6.07;;;10.30;99.90;;;;;;5095574;28;20051;-86
2023/05/05 00:23:24;;;;;;;12.57;6.78;;;10.30;99.90;;;;;;5095363;28;20047;-85
2023/05/05 00:25:52;;;;;;;11.45;6.88;;;10.20;99.90;;;;;;5094105;28;20058;-86
2023/05/05 00:28:18;;;;;;;9.00;6.55;;;10.10;99.90;;;;;;5094234;28;20059;-86
2023/05/05 00:30:44;;;;;;;11.93;6.43;;;10.10;99.90;;;;;;5094072;28;20436;-86
2023/05/05 00:33:10;;;;;;;11.48;6.72;;;10.10;99.90;;;;;;5095346;28;20036;-86
2023/05/05 00:35:35;;;;;;;13.50;7.05;;;10.10;99.90;;;;;;5095235;28;20387;-86
2023/05/05 00:38:02;;;;;;;12.27;6.43;;;10.00;99.90;;;;;;5094995;28;20050;-86
2023/05/05 00:40:28;;;;;;;13.70;6.68;;;10.00;99.90;;;;;;5094111;28;20052;-86
2023/05/05 00:42:54;;;;;;;13.00;6.07;;;10.00;99.90;;;;;;5095133;28;20428;-85
2023/05/05 00:45:20;;;;;;;12.85;6.72;;;10.00;99.90;;;;;;5094871;28;20071;-85
2023/05/05 00:47:48;;;;;;;11.27;6.22;;;10.00;99.90;;;;;;5093547;28;20131;-85
2023/05/05 00:50:25;;;;;;;14.20;6.68;;;9.90;99.90;;;;;;5094722;28;20386;-85
2023/05/05 00:52:54;;;;;;;11.38;6.13;;;9.90;99.90;;;;;;5093871;28;20140;-86
2023/05/05 00:55:20;;;;;;;10.23;5.60;;;9.90;99.90;;;;;;5094839;28;20055;-86
2023/05/05 00:57:47;;;;;;;13.27;6.50;;;9.90;99.90;;;;;;5094844;28;20058;-86
2023/05/05 01:00:13;;;;;;;10.63;6.03;;;9.90;99.90;;;;;;5094433;28;20554;-86
2023/05/05 01:02:40;;;;;;;11.48;6.60;;;9.90;99.90;;;;;;5094772;28;20040;-86
2023/05/05 01:05:07;;;;;;;14.30;6.93;;;9.90;99.90;;;;;;5094466;28;20349;-86
2023/05/05 01:07:38;;;;;;;13.73;6.15;;;9.90;99.90;;;;;;5094670;28;20059;-86
2023/05/05 01:10:22;;;;;;;14.88;7.60;;;9.80;99.90;;;;;;5094518;28;20388;-86
2023/05/05 01:12:55;;;;;;;12.48;6.97;;;9.80;99.90;;;;;;5094068;28;20044;-86
2023/05/05 01:15:36;;;;;;;13.30;6.80;;;9.80;99.90;;;;;;5094346;28;20048;-86
2023/05/05 01:18:12;;;;;;;11.48;6.43;;;9.80;99.90;;;;;;5092449;28;20120;-86
2023/05/05 01:20:53;;;;;;;11.32;6.43;;;9.80;99.90;;;;;;5092886;28;20380;-86
2023/05/05 01:23:34;;;;;;;11.90;6.65;;;9.80;99.90;;;;;;5094365;28;20044;-86
2023/05/05 01:26:35;;;;;;;11.18;6.63;;;9.80;99.90;;;;;;5094043;28;20044;-86
2023/05/05 01:29:28;;;;;;;12.10;5.85;;;9.80;99.90;;;;;;5094239;28;20044;-86
2023/05/05 01:32:03;;;;;;;11.18;6.22;;;9.80;99.90;;;;;;5093104;28;20051;-86
2023/05/05 01:34:39;;;;;;;11.05;6.57;;;9.80;99.90;;;;;;5094099;28;20494;-86
2023/05/05 01:37:12;;;;;;;12.77;6.72;;;9.80;99.90;;;;;;5094228;28;20036;-86
2023/05/05 01:39:41;;;;;;;14.23;6.75;;;9.70;99.90;;;;;;5092872;28;20062;-86
2023/05/05 01:42:12;;;;;;;11.80;6.18;;;9.80;99.90;;;;;;5094070;28;20036;-86
2023/05/05 01:44:41;;;;;;;12.00;6.85;;;9.80;99.90;;;;;;5094122;28;20040;-86
2023/05/05 01:47:09;;;;;;;12.05;6.50;;;9.80;99.90;;;;;;5094002;28;20043;-86
2023/05/05 01:49:37;;;;;;;12.27;6.25;;;9.70;99.90;;;;;;5093823;28;20052;-86
2023/05/05 01:52:04;;;;;;;11.55;5.95;;;9.70;99.90;;;;;;5093775;28;20083;-86
2023/05/05 01:54:33;;;;;;;14.65;6.88;;;9.70;99.90;;;;;;5093930;28;20087;-86
2023/05/05 01:57:00;;;;;;;11.65;6.15;;;9.70;99.90;;;;;;5093852;28;20036;-86
2023/05/05 01:59:27;;;;;;;14.15;6.88;;;9.70;99.90;;;;;;5092507;28;20059;-86
2023/05/05 02:01:54;;;;;;;12.68;6.20;;;9.70;99.90;;;;;;5092464;28;20052;-86
2023/05/05 02:04:21;;;;;;;12.65;6.18;;;9.70;99.90;;;;;;5093721;28;20052;-86
2023/05/05 02:06:51;;;;;;;13.20;6.60;;;9.70;99.90;;;;;;5093686;28;20496;-86
2023/05/05 02:09:18;;;;;;;9.95;5.90;;;9.70;99.90;;;;;;5092351;28;20048;-86
2023/05/05 02:11:44;;;;;;;10.82;6.20;;;9.70;99.90;;;;;;5093711;28;20039;-86
2023/05/05 02:14:11;;;;;;;11.82;6.05;;;9.70;99.90;;;;;;5093528;28;20424;-86
2023/05/05 02:16:40;;;;;;;10.95;6.13;;;9.80;99.90;;;;;;5092569;28;20052;-86
2023/05/05 02:19:07;;;;;;;10.73;6.10;;;9.80;99.90;;;;;;5093455;28;20052;-86
2023/05/05 02:21:33;;;;;;;10.32;6.35;;;9.70;99.90;;;;;;5092400;28;20056;-86
2023/05/05 02:23:59;;;;;;;9.27;6.38;;;9.80;99.90;;;;;;5091962;28;20054;-85
2023/05/05 02:26:28;;;;;;;11.05;6.28;;;9.80;99.90;;;;;;5093398;28;20480;-86
2023/05/05 02:29:06;;;;;;;12.50;6.43;;;9.80;99.90;;;;;;5096665;28;20044;-86
2023/05/05 02:31:57;;;;;;;12.00;6.50;;;9.80;99.90;;;;;;5097680;28;20492;-86
2023/05/05 02:34:25;;;;;;;11.68;6.30;;;9.80;99.90;;;;;;5097071;28;20555;-86
2023/05/05 02:36:56;;;;;;;11.02;5.93;;;9.80;99.90;;;;;;5097408;28;20048;-86
2023/05/05 02:39:29;;;;;;;12.20;6.72;;;9.80;99.90;;;;;;5093595;28;20047;-86
2023/05/05 02:42:01;;;;;;;11.63;6.10;;;9.80;99.90;;;;;;5077194;28;20078;-86
2023/05/05 02:44:28;;;;;;;9.48;6.05;;;9.80;99.90;;;;;;5077230;28;20130;-86
2023/05/05 02:46:54;;;;;;;10.43;6.13;;;9.80;99.90;;;;;;5077133;28;20055;-86
2023/05/05 02:49:20;;;;;;;10.43;6.75;;;9.90;99.90;;;;;;5075632;28;20048;-86
2023/05/05 02:51:46;;;;;;;13.43;6.20;;;9.90;99.90;;;;;;5077039;28;20044;-86
2023/05/05 02:54:11;;;;;;;13.25;6.10;;;9.80;99.90;;;;;;5076971;28;20127;-86
2023/05/05 02:56:46;;;;;;;13.02;6.68;;;9.80;99.90;;;;;;5075660;28;20120;-86
2023/05/05 02:59:35;;;;;;;10.05;5.55;;;9.80;99.90;;;;;;5076840;28;20083;-86
2023/05/05 03:02:16;;;;;;;12.95;6.10;;;9.90;99.90;;;;;;5076787;28;20492;-86
2023/05/05 03:04:57;;;;;;;11.15;6.07;;;9.90;99.90;;;;;;5075756;28;20052;-86
2023/05/05 03:07:43;;;;;;;12.23;5.90;;;9.90;99.90;;;;;;5076772;28;20054;-86
2023/05/05 03:10:17;;;;;;;11.07;6.40;;;9.90;99.90;;;;;;5076792;28;20056;-86
2023/05/05 03:12:52;;;;;;;10.35;5.32;;;9.90;99.90;;;;;;5075310;28;20055;-86
2023/05/05 03:15:21;;;;;;;11.77;6.10;;;9.90;99.90;;;;;;5076569;28;20044;-86
2023/05/05 03:17:47;;;;;;;13.00;5.72;;;9.90;99.90;;;;;;5074973;28;20090;-86
2023/05/05 03:20:13;;;;;;;10.60;6.00;;;9.90;99.90;;;;;;5075007;28;20055;-86
2023/05/05 03:22:39;;;;;;;11.15;6.00;;;9.80;99.90;;;;;;5076317;28;20094;-85
2023/05/05 03:25:05;;;;;;;9.68;6.07;;;9.80;99.90;;;;;;5076076;28;20048;-86
2023/05/05 03:27:34;;;;;;;9.20;5.72;;;9.80;99.90;;;;;;5076398;28;20048;-86
2023/05/05 03:30:00;;;;;;;9.68;6.28;;;9.70;99.90;;;;;;5076234;28;20043;-86
2023/05/05 03:32:26;;;;;;;9.90;5.57;;;9.70;99.90;;;;;;5076318;28;20032;-86
2023/05/05 03:34:51;;;;;;;8.98;5.32;;;9.70;99.90;;;;;;5074770;28;20119;-86
2023/05/05 03:37:17;;;;;;;9.50;5.53;;;9.60;99.90;;;;;;5076167;28;20049;-86
2023/05/05 03:39:43;;;;;;;9.05;5.88;;;9.70;99.90;;;;;;5075442;28;20051;-86
2023/05/05 03:42:08;;;;;;;16.27;5.95;;;9.70;99.90;;;;;;5074834;28;20052;-86
2023/05/05 03:44:34;;;;;;;10.20;6.03;;;9.70;99.90;;;;;;5075958;28;20037;-87
2023/05/05 03:46:59;;;;;;;8.38;5.70;;;9.70;99.90;;;;;;5075831;28;20051;-86
2023/05/05 03:49:25;;;;;;;11.20;7.07;;;9.70;99.90;;;;;;5074520;28;20396;-86
2023/05/05 03:51:51;;;;;;;11.73;6.00;;;9.70;99.90;;;;;;5074412;28;20121;-86
2023/05/05 03:54:16;;;;;;;7.75;5.32;;;9.70;99.90;;;;;;5075017;28;20044;-86
2023/05/05 03:56:42;;;;;;;11.93;6.00;;;9.70;99.90;;;;;;5075643;28;20488;-86
2023/05/05 03:59:08;;;;;;;8.95;5.15;;;9.70;99.90;;;;;;5075448;28;20408;-86
2023/05/05 04:01:34;;;;;;;11.50;5.60;;;9.70;99.90;;;;;;5075690;28;20033;-86
2023/05/05 04:04:00;;;;;;;12.30;6.30;;;9.70;99.90;;;;;;5075537;28;20114;-86
2023/05/05 04:06:26;;;;;;;11.88;5.93;;;9.70;99.90;;;;;;5075311;28;20044;-86
2023/05/05 04:08:52;;;;;;;10.07;5.72;;;9.60;99.90;;;;;;5075527;28;20059;-86
2023/05/05 04:11:18;;;;;;;11.90;6.07;;;9.60;99.90;;;;;;5075386;28;20044;-86
2023/05/05 04:13:44;;;;;;;8.40;5.70;;;9.70;99.90;;;;;;5074124;28;20048;-86
2023/05/05 04:16:10;;;;;;;10.82;5.82;;;9.70;99.90;;;;;;5074020;28;20483;-86
2023/05/05 04:18:36;;;;;;;8.35;5.70;;;9.70;99.90;;;;;;5074079;28;20079;-87
2023/05/05 04:21:03;;;;;;;10.88;5.82;;;9.70;99.90;;;;;;5074020;28;20076;-87
2023/05/05 04:23:29;;;;;;;9.70;6.30;;;9.70;99.90;;;;;;5075184;28;20110;-86
2023/05/05 04:25:55;;;;;;;10.27;5.72;;;9.70;99.90;;;;;;5074839;28;20052;-86
2023/05/05 04:28:25;;;;;;;10.40;5.95;;;9.70;99.90;;;;;;5075093;28;20094;-87
2023/05/05 04:30:50;;;;;;;10.13;6.07;;;9.70;99.90;;;;;;5074840;28;20511;-86
2023/05/05 04:33:16;;;;;;;11.70;6.07;;;9.70;99.90;;;;;;5075094;28;20036;-86
2023/05/05 04:35:42;;;;;;;11.40;6.75;;;9.70;99.90;;;;;;5074980;28;20124;-86
2023/05/05 04:38:07;;;;;;;11.80;6.45;;;9.70;99.90;;;;;;5073722;28;20033;-87
2023/05/05 04:40:38;;;;;;;10.77;6.30;;;9.70;99.90;;;;;;5074566;28;20102;-87
2023/05/05 04:43:05;;;;;;;8.52;5.93;;;9.60;99.90;;;;;;5074907;28;20102;-87
2023/05/05 04:45:31;;;;;;;10.98;6.88;;;9.60;99.90;;;;;;5074794;28;20048;-87
2023/05/05 04:47:56;;;;;;;13.73;7.35;;;9.40;99.90;;;;;;5073492;28;20165;-87
2023/05/05 04:50:22;;;;;;;11.18;6.68;;;9.40;99.90;;;;;;5073018;28;20091;-87
2023/05/05 04:52:48;;;;;;;13.45;6.97;;;9.40;99.90;;;;;;5072319;28;20052;-86
2023/05/05 04:55:13;;;;;;;13.13;7.20;;;9.40;99.90;;;;;;5074336;28;20036;-87
2023/05/05 04:57:39;;;;;;;14.63;7.35;;;9.40;99.90;;;;;;5073553;28;20408;-86
2023/05/05 05:00:06;;;;;;;15.50;6.75;;;9.40;99.90;;;;;;5073866;28;20569;-86
2023/05/05 05:02:32;;;;;;;10.52;7.60;;;9.30;99.90;;;;;;5072955;28;20094;-86
2023/05/05 05:04:57;;;;;;;12.00;7.22;;;9.20;99.90;;;;;;5073090;28;20040;-86
2023/05/05 05:07:23;;;;;;;11.27;7.10;;;9.20;99.90;;;;;;5073094;28;20040;-87
2023/05/05 05:09:49;;;;;;;14.57;7.65;;;9.20;99.90;;;;;;5074394;28;20085;-87
2023/05/05 05:12:14;;;;;;;13.10;7.75;;;9.20;99.90;;;;;;5074271;28;20075;-87
2023/05/05 05:14:40;;;;;;;9.85;6.57;;;9.20;99.90;;;;;;5072707;28;20044;-86
2023/05/05 05:17:06;;;;;;;13.55;7.43;;;9.20;99.90;;;;;;5073208;28;20123;-86
2023/05/05 05:19:31;;;;;;;10.73;6.88;;;9.20;99.90;;;;;;5072806;28;20056;-86
2023/05/05 05:21:57;;;;;;;13.73;7.32;;;9.20;99.90;;;;;;5072592;28;20058;-86
2023/05/05 05:24:24;;;;;;;13.10;7.38;;;9.20;99.90;;;;;;5073765;28;20105;-87
2023/05/05 05:26:51;;;;;;;11.80;7.35;;;9.20;99.90;;;;;;5072533;28;20548;-86
2023/05/05 05:29:18;;;;;;;13.30;7.68;;;9.20;99.90;;;;;;5073947;28;20051;-87
2023/05/05 05:31:44;;;;;;;11.05;7.25;;;9.20;99.90;;;;;;5073836;28;20044;-86
2023/05/05 05:34:10;;;;;;;13.05;8.38;;;9.20;99.90;;;;;;5073931;28;20045;-86
2023/05/05 05:36:35;;;;;;;12.85;7.03;;;9.20;99.90;;;;;;5073593;28;20119;-85
2023/05/05 05:39:01;;;;;;;11.65;7.28;;;9.20;99.90;;;;;;5073550;28;20045;-86
2023/05/05 05:41:26;;;;;;;12.95;7.38;;;9.20;99.90;;;;;;5072596;28;20045;-86
2023/05/05 05:43:52;;;;;;;13.55;7.32;;;9.10;99.90;;;;;;5073656;28;20407;-86
2023/05/05 05:46:18;;;;;;;12.35;6.90;;;9.10;99.90;;;;;;5072430;28;20051;-86
2023/05/05 05:48:43;;;;;;;13.02;7.38;;;9.20;99.90;;;;;;5073724;28;20056;-86
2023/05/05 05:51:09;;;;;;;13.43;7.95;;;9.20;99.90;;;;;;5072419;28;20084;-86
2023/05/05 05:53:35;;;;;;;11.60;7.78;;;9.20;99.90;;;;;;5073355;28;20051;-86
2023/05/05 05:56:00;;;;;;;14.95;7.20;;;9.30;99.90;;;;;;5073590;28;20044;-86
2023/05/05 05:58:26;;;;;;;12.57;8.02;;;9.30;99.90;;;;;;5073539;28;20041;-86
2023/05/05 06:00:52;;;;;;;13.10;8.20;;;9.40;99.90;;;;;;5073640;28;20036;-86
2023/05/05 06:03:17;;;;;;;14.32;8.27;;;9.40;99.90;;;;;;5071942;28;20064;-86
2023/05/05 06:05:45;;;;;;;11.32;7.68;;;9.40;99.90;;;;;;5072430;28;20074;-87
2023/05/05 06:08:10;;;;;;;12.38;8.40;;;9.50;99.90;;;;;;5073251;28;20488;-87
2023/05/05 06:10:36;;;;;;;10.50;7.80;;;9.50;99.90;;;;;;5072000;28;20048;-86
2023/05/05 06:13:01;;;;;;;11.55;7.82;;;9.60;99.90;;;;;;5073520;28;20044;-86
2023/05/05 06:15:27;;;;;;;10.13;7.70;;;9.60;99.90;;;;;;5073384;28;20045;-86
2023/05/05 06:17:53;;;;;;;11.80;7.95;;;9.60;99.90;;;;;;5073377;28;20076;-87
2023/05/05 06:20:18;;;;;;;12.27;7.22;;;9.70;99.90;;;;;;5073414;28;20549;-86
2023/05/05 06:22:44;;;;;;;12.48;8.52;;;9.70;99.90;;;;;;5072252;28;20044;-86
2023/05/05 06:25:10;;;;;;;13.55;8.00;;;9.70;99.90;;;;;;5073078;28;20065;-86
2023/05/05 06:27:37;;;;;;;13.63;7.50;;;9.90;99.90;;;;;;5073282;28;20068;-87
2023/05/05 06:30:03;;;;;;;13.00;7.63;;;9.90;99.90;;;;;;5073318;28;20114;-86
2023/05/05 06:32:28;;;;;;;14.00;7.97;;;10.00;99.90;;;;;;5073431;28;20060;-87
2023/05/05 06:34:54;;;;;;;11.18;7.32;;;10.20;99.90;;;;;;5073308;28;20044;-86
2023/05/05 06:37:19;;;;;;;12.15;8.18;;;10.40;99.90;;;;;;5073236;28;20053;-86
2023/05/05 06:39:45;;;;;;;11.25;7.85;;;10.60;99.90;;;;;;5071616;28;20055;-86
2023/05/05 06:42:11;;;;;;;13.48;7.82;;;10.90;99.90;;;;;;5073227;28;20123;-86
2023/05/05 06:44:36;;;;;;;9.65;7.38;;;11.10;99.90;;;;;;5073245;28;20084;-86
2023/05/05 06:47:02;;;;;;;11.88;7.35;;;11.10;99.90;;;;;;5071651;28;20068;-86
2023/05/05 06:49:28;;;;;;;12.25;7.75;;;11.10;99.90;;;;;;5071807;28;20102;-86
2023/05/05 06:51:54;;;;;;;14.00;7.43;;;11.10;99.90;;;;;;5071827;28;20040;-86
2023/05/05 06:54:19;;;;;;;10.30;6.82;;;11.30;99.90;;;;;;5072751;28;20148;-86
2023/05/05 06:56:45;;;;;;;13.43;7.45;;;11.40;99.90;;;;;;5072055;28;20044;-86
2023/05/05 06:59:11;;;;;;;11.95;7.50;;;11.60;99.90;;;;;;5072643;28;20113;-87
2023/05/05 07:01:36;;;;;;;11.60;7.47;;;11.80;99.90;;;;;;5072727;28;20496;-86
2023/05/05 07:04:02;;;;;;;12.45;7.30;;;12.00;99.90;;;;;;5071953;28;20088;-87
2023/05/05 07:06:28;;;;;;;10.90;7.60;;;12.10;99.90;;;;;;5072985;28;20047;-87
2023/05/05 07:08:53;;;;;;;11.60;7.57;;;12.30;99.90;;;;;;5071828;28;20404;-87
2023/05/05 07:11:19;;;;;;;11.48;7.90;;;12.40;99.90;;;;;;5071534;28;20580;-87
2023/05/05 07:13:45;;;;;;;8.88;7.20;;;12.50;99.90;;;;;;5072855;28;20116;-86
2023/05/05 07:16:11;;;;;;;12.77;7.80;;;12.70;99.90;;;;;;5074615;28;20076;-87
2023/05/05 07:18:36;;;;;;;10.50;7.72;;;12.90;99.90;;;;;;5075150;28;20044;-87
2023/05/05 07:21:04;;;;;;;9.45;7.18;;;12.90;99.90;;;;;;5074904;28;20053;-87
2023/05/05 07:23:30;;;;;;;11.48;7.97;;;13.10;99.90;;;;;;5075011;28;20040;-86
2023/05/05 07:25:55;;;;;;;11.43;7.82;;;13.20;99.90;;;;;;5074700;28;20415;-86
2023/05/05 07:28:22;;;;;;;11.35;7.78;;;13.40;99.90;;;;;;5074776;28;20492;-85
2023/05/05 07:30:47;;;;;;;11.45;7.68;;;13.60;99.90;;;;;;5076850;28;20040;-86
2023/05/05 07:33:13;;;;;;;13.32;8.40;;;13.70;99.90;;;;;;5083478;28;20037;-87
2023/05/05 07:35:39;;;;;;;13.52;7.75;;;13.80;99.90;;;;;;5075803;28;20139;-86
2023/05/05 07:38:05;;;;;;;13.13;7.43;;;14.00;99.90;;;;;;5074726;28;20059;-86
2023/05/05 07:40:32;;;;;;;11.63;7.43;;;14.00;99.90;;;;;;5075941;28;20466;-85
2023/05/05 07:42:58;;;;;;;12.57;7.85;;;14.10;99.90;;;;;;5075970;28;20051;-86
2023/05/05 07:45:24;;;;;;;11.25;7.50;;;14.30;99.90;;;;;;5075979;28;20131;-87
2023/05/05 07:47:49;;;;;;;9.90;7.75;;;14.40;99.90;;;;;;5075712;28;20040;-87
2023/05/05 07:50:15;;;;;;;13.35;8.60;;;14.60;99.90;;;;;;5075654;28;20381;-86
2023/05/05 07:52:41;;;;;;;12.07;7.25;;;14.50;99.90;;;;;;5075656;28;20036;-86
2023/05/05 07:55:06;;;;;;;11.05;7.70;;;14.70;99.90;;;;;;5074558;28;20396;-85
2023/05/05 07:57:32;;;;;;;12.25;8.27;;;14.90;99.90;;;;;;5075674;28;20033;-86
2023/05/05 07:59:57;;;;;;;10.85;8.10;;;15.10;99.90;;;;;;5076952;28;20041;-83
2023/05/05 08:02:23;;;;;;;9.27;8.25;;;15.20;99.90;;;;;;5095866;28;20079;-85
2023/05/05 08:04:49;;;;;;;12.25;8.18;;;15.10;99.90;;;;;;5094288;28;20131;-85
2023/05/05 08:07:14;;;;;;;11.77;8.25;;;15.10;99.90;;;;;;5095751;28;20040;-86
2023/05/05 08:09:40;;;;;;;13.30;8.07;;;15.20;99.90;;;;;;5095698;28;20067;-86
2023/05/05 08:12:06;;;;;;;13.18;9.23;;;15.20;99.90;;;;;;5094136;28;20048;-85
2023/05/05 08:14:32;;;;;;;13.73;8.57;;;15.10;99.90;;;;;;5094436;28;20055;-85
2023/05/05 08:16:57;;;;;;;11.50;8.65;;;15.30;99.90;;;;;;5095246;28;20568;-86
2023/05/05 08:19:23;;;;;;;11.05;9.10;;;15.60;99.90;;;;;;5095406;28;20044;-86
2023/05/05 08:21:49;;;;;;;11.23;8.70;;;15.40;99.90;;;;;;5095450;28;20036;-84
2023/05/05 08:24:15;;;;;;;11.57;9.32;;;15.50;99.90;;;;;;5095144;28;20709;-86
2023/05/05 08:26:41;;;;;;;12.65;8.63;;;15.60;99.90;;;;;;5093841;28;20052;-85
2023/05/05 08:29:07;;;;;;;11.13;9.50;;;15.60;99.90;;;;;;5095294;28;20108;-84
2023/05/05 08:31:34;;;;;;;15.65;10.63;;;15.80;99.90;;;;;;5094061;28;20126;-84
2023/05/05 08:34:00;;;;;;;10.82;9.18;;;15.70;99.90;;;;;;5094959;28;20136;-84
2023/05/05 08:36:26;;;;;;;12.90;10.73;;;15.80;99.90;;;;;;5095021;28;20063;-83
2023/05/05 08:38:52;;;;;;;11.73;9.77;;;15.80;99.90;;;;;;5094969;28;20032;-84
2023/05/05 08:41:18;;;;;;;14.00;10.10;;;16.00;99.90;;;;;;5093848;28;20177;-83
2023/05/05 08:43:49;;;;;;;10.77;9.07;;;16.20;99.90;;;;;;5093496;28;20048;-84
2023/05/05 08:46:16;;;;;;;14.10;10.00;;;16.30;99.90;;;;;;5093513;28;20446;-84
2023/05/05 08:48:43;;;;;;;13.02;10.13;;;16.60;99.90;;;;;;5093564;28;20127;-84
2023/05/05 08:51:15;;;;;;;12.93;9.43;;;16.60;99.90;;;;;;5094679;28;20044;-86
2023/05/05 08:53:52;;;;;;;12.95;10.18;;;16.90;99.90;;;;;;5093492;28;20047;-83
2023/05/05 08:56:20;;;;;;;15.00;10.68;;;17.10;99.90;;;;;;5093607;28;20050;-86
2023/05/05 08:58:47;;;;;;;13.15;10.23;;;17.10;99.90;;;;;;5093345;28;20058;-84
2023/05/05 09:01:14;;;;;;;11.10;9.93;;;17.20;99.90;;;;;;5093414;28;20056;-84
2023/05/05 09:03:40;;;;;;;13.70;10.27;;;17.20;99.90;;;;;;5093422;28;20135;-86
2023/05/05 09:06:06;;;;;;;12.38;10.63;;;17.50;99.90;;;;;;5093400;28;20118;-85
2023/05/05 09:08:32;;;;;;;11.90;9.95;;;17.60;99.90;;;;;;5093043;28;20044;-84
2023/05/05 09:11:00;;;;;;;12.95;10.18;;;17.80;99.90;;;;;;5093027;28;20058;-84
2023/05/05 09:13:26;;;;;;;12.65;11.35;;;17.90;99.90;;;;;;5094526;28;20113;-84
2023/05/05 09:15:51;;;;;;;12.65;10.00;;;18.10;99.90;;;;;;5092900;28;20065;-83
2023/05/05 09:18:17;;;;;;;13.52;10.77;;;18.30;99.90;;;;;;5094326;28;20032;-82
2023/05/05 09:20:42;;;;;;;12.65;10.90;;;18.30;99.90;;;;;;5092764;28;20445;-82
2023/05/05 09:23:12;;;;;;;14.55;11.10;;;18.50;99.90;;;;;;5092877;28;20040;-83
2023/05/05 09:25:39;;;;;;;13.70;11.55;;;18.30;99.90;;;;;;5092634;28;20044;-83
2023/05/05 09:28:13;;;;;;;15.63;11.38;;;18.50;99.90;;;;;;5093010;28;20138;-82
2023/05/05 09:30:40;;;;;;;14.27;11.93;;;18.60;99.90;;;;;;5092668;28;20048;-82
2023/05/05 09:33:06;;;;;;;15.95;11.93;;;18.70;99.90;;;;;;5093885;28;20464;-82
2023/05/05 09:35:52;;;;;;;19.63;15.75;;;18.80;99.90;;;;;;5092786;28;20052;-85
2023/05/05 09:38:19;;;;;;;12.90;11.63;;;18.80;99.90;;;;;;5091952;28;20464;-85
2023/05/05 09:40:50;;;;;;;15.68;11.85;;;18.60;99.90;;;;;;5093563;28;20048;-85
2023/05/05 09:43:17;;;;;;;14.63;12.10;;;18.50;99.90;;;;;;5093980;28;20115;-85
2023/05/05 09:45:43;;;;;;;17.48;12.85;;;18.40;99.90;;;;;;5093699;28;20044;-85
2023/05/05 09:48:29;;;;;;;14.38;12.15;;;18.30;99.90;;;;;;5093949;28;20157;-84
2023/05/05 09:50:56;;;;;;;16.15;12.60;;;18.00;99.90;;;;;;5092329;28;20076;-85
2023/05/05 09:53:23;;;;;;;13.60;12.27;;;18.10;99.90;;;;;;5092519;28;20063;-85
2023/05/05 09:55:56;;;;;;;14.45;12.07;;;17.90;99.90;;;;;;5092486;28;20055;-84
2023/05/05 09:58:27;;;;;;;17.25;13.00;;;18.20;99.90;;;;;;5092875;28;20070;-84
2023/05/05 10:00:54;;;;;;;14.68;12.25;;;18.40;99.90;;;;;;5092137;28;20044;-85
2023/05/05 10:03:20;;;;;;;16.58;12.07;;;18.50;99.90;;;;;;5092165;28;20060;-84
2023/05/05 10:05:58;;;;;;;14.20;12.73;;;18.50;99.90;;;;;;5092030;28;20062;-85
2023/05/05 10:08:30;;;;;;;13.90;12.35;;;18.60;99.90;;;;;;5093622;28;20044;-87
2023/05/05 10:11:02;;;;;;;15.33;12.83;;;18.60;99.90;;;;;;5093586;28;20044;-83
2023/05/05 10:13:28;;;;;;;;;;;18.50;99.90;;;;;;5093804;28;20052;-83
2023/05/05 10:15:55;;;;;;;16.05;13.02;;;18.50;99.90;;;;;;5093372;28;19920;-85
2023/05/05 10:18:23;;;;;;;14.27;12.73;;;18.60;99.90;;;;;;5093224;28;20518;-83
2023/05/05 10:20:56;;;;;;;16.27;13.63;;;19.10;99.90;;;;;;5093506;28;20047;-84
2023/05/05 10:23:23;;;;;;;19.10;14.07;;;19.30;99.90;;;;;;5093273;28;20055;-84
2023/05/05 10:26:05;;;;;;;15.73;14.00;;;19.40;99.90;;;;;;5093036;28;20048;-84
2023/05/05 10:28:43;;;;;;;14.80;13.18;;;19.50;99.90;;;;;;5093433;28;20051;-82
2023/05/05 10:31:16;;;;;;;16.25;14.00;;;19.70;99.90;;;;;;5093061;28;20480;-85
2023/05/05 10:34:01;;;;;;;17.13;14.93;;;19.80;99.90;;;;;;5091919;28;20052;-84
2023/05/05 10:36:28;;;;;;;17.80;15.45;;;19.90;99.90;;;;;;5091935;28;20047;-85
2023/05/05 10:38:58;;;;;;;18.63;16.05;;;19.70;99.90;;;;;;5091663;28;20512;-84
2023/05/05 10:41:25;;;;;;;19.35;15.85;;;19.70;99.90;;;;;;5093051;28;20044;-84
2023/05/05 10:43:55;;;;;;;17.70;15.57;;;19.70;99.90;;;;;;5091654;28;20097;-85
2023/05/05 10:46:22;;;;;;;16.75;15.02;;;19.60;99.90;;;;;;5092049;28;20039;-84
2023/05/05 10:48:50;;;;;;;20.85;15.95;;;19.50;99.90;;;;;;5093239;28;20044;-85
2023/05/05 10:51:29;;;;;;;21.15;16.38;;;19.80;99.90;;;;;;5096644;28;20051;-83
2023/05/05 10:54:06;;;;;;;22.13;16.50;;;20.10;99.90;;;;;;5096810;28;20479;-83
2023/05/05 10:56:33;;;;;;;21.40;17.92;;;20.20;99.90;;;;;;5097143;28;20075;-84
2023/05/05 10:58:59;;;;;;;21.30;18.63;;;20.30;99.90;;;;;;5095658;28;20544;-80
2023/05/05 11:01:29;;;;;;;21.85;17.90;;;20.30;99.90;;;;;;5095526;28;20048;-82
2023/05/05 11:04:18;;;;;;;21.55;17.77;;;20.30;99.90;;;;;;5095415;28;20514;-81
2023/05/05 11:07:07;;;;;;;20.33;16.25;;;20.50;99.90;;;;;;5095673;28;20097;-80
2023/05/05 11:09:37;;;;;;;19.30;16.50;;;20.40;99.90;;;;;;5095049;28;20052;-86
2023/05/05 11:12:05;;;;;;;19.25;15.98;;;20.70;99.90;;;;;;5095558;28;20048;-87
2023/05/05 11:14:31;;;;;;;19.15;16.17;;;20.60;99.90;;;;;;5096366;28;20048;-87
2023/05/05 11:16:57;;;;;;;17.75;15.93;;;20.40;99.90;;;;;;5095189;28;20048;-88
2023/05/05 11:19:43;;;;;;;16.73;14.93;;;20.20;99.90;;;;;;5096330;28;20096;-84
2023/05/05 11:22:09;;;;;;;18.33;16.00;;;20.20;99.90;;;;;;5096587;28;20048;-82
2023/05/05 11:24:38;;;;;;;17.30;14.18;;;20.20;99.90;;;;;;5093491;28;20135;-86
2023/05/05 11:27:05;;;;;;;16.20;14.27;;;20.10;99.90;;;;;;5091743;28;20051;-82
2023/05/05 11:30:08;;;;;;;18.25;14.95;;;20.10;99.90;;;;;;5089881;28;20044;-83
2023/05/05 11:32:34;;;;;;;;;;;20.00;99.90;;;;;;5090711;28;20044;-82
2023/05/05 11:35:00;;;;;;;17.80;16.00;;;20.10;99.90;;;;;;5092165;28;19924;-82
2023/05/05 11:37:27;;;;;;;21.88;16.45;;;20.30;99.90;;;;;;5081072;28;20041;-81
2023/05/05 11:40:22;;;;;;;21.75;16.75;;;20.30;99.90;;;;;;5091021;28;20113;-82
2023/05/05 11:42:47;;;;;;;21.27;17.65;;;20.10;99.90;;;;;;5083956;28;20126;-79
2023/05/05 11:45:22;;;;;;;20.38;16.27;;;20.10;99.90;;;;;;5086687;28;20445;-82
2023/05/05 11:47:47;;;;;;;19.42;17.33;;;20.10;99.90;;;;;;5078661;28;20044;-81
2023/05/05 11:50:18;;;;;;;19.42;16.13;;;20.00;99.90;;;;;;5088182;28;20032;-81
2023/05/05 11:52:44;;;;;;;18.25;16.05;;;19.90;99.90;;;;;;5095738;28;20048;-81
2023/05/05 11:55:10;;;;;;;17.65;14.75;;;19.80;99.90;;;;;;5094197;28;20040;-81
2023/05/05 11:57:36;;;;;;;17.45;14.18;;;19.60;99.90;;;;;;5094182;28;20048;-83
2023/05/05 12:00:06;;;;;;;17.10;14.23;;;19.60;99.90;;;;;;5093643;28;20040;-82
2023/05/05 12:02:31;;;;;;;18.90;14.43;;;19.40;99.90;;;;;;5094039;28;20059;-83
2023/05/05 12:04:58;;;;;;;19.55;15.45;;;19.30;99.90;;;;;;5093679;28;20048;-82
2023/05/05 12:07:32;;;;;;;18.60;13.13;;;19.20;99.90;;;;;;5095117;28;20047;-82
2023/05/05 12:09:58;;;;;;;14.98;13.38;;;19.20;99.90;;;;;;5093984;28;20044;-82
2023/05/05 12:12:34;;;;;;;17.50;12.07;;;19.00;99.90;;;;;;5087818;28;20373;-83
2023/05/05 12:15:00;;;;;;;14.15;11.25;;;18.90;99.90;;;;;;5084309;28;20091;-83
2023/05/05 12:17:39;;;;;;;17.13;11.98;;;18.80;99.90;;;;;;5094063;28;20074;-82
2023/05/05 12:20:06;;;;;;;10.18;8.20;;;18.60;99.90;;;;;;5084511;28;20055;-82
2023/05/05 12:22:31;;;;;;;11.73;6.93;;;18.50;99.90;;;;;;5093646;28;20048;-82
2023/05/05 12:24:59;;;;;;;9.57;5.03;;;18.50;99.90;;;;;;5094648;28;20063;-82
2023/05/05 12:27:28;;;;;;;5.53;3.70;;;18.50;99.90;;;;;;5094617;28;20086;-82
2023/05/05 12:29:55;;;;;;;4.38;3.22;;;18.30;99.90;;;;;;5094588;28;20108;-83
2023/05/05 12:32:26;;;;;;;7.38;3.75;;;18.20;99.90;;;;;;5092475;28;20056;-86
2023/05/05 12:34:53;;;;;;;9.23;4.03;;;18.30;99.90;;;;;;5074543;28;20049;-86
2023/05/05 12:37:20;;;;;;;6.75;3.88;;;18.20;99.90;;;;;;5074616;28;20045;-86
2023/05/05 12:39:46;;;;;;;8.90;4.85;;;18.10;99.90;;;;;;5081081;28;20048;-83
2023/05/05 12:42:12;;;;;;;6.70;4.13;;;17.80;99.90;;;;;;5074740;28;20124;-83
2023/05/05 12:44:39;;;;;;;10.02;5.32;;;17.80;99.90;;;;;;5075541;28;20127;-83
2023/05/05 12:47:05;;;;;;;9.63;5.60;;;17.80;99.90;;;;;;5094809;28;20037;-83